sensor_id;sensor_type;location;lat;lon;timestamp;P1;durP1;ratioP1;P2;durP2;ratioP2
15812;SDS011;8007;51.404;6.304;2023-08-24T00:01:53;6.30;;;4.87;;
15812;SDS011;8007;51.404;6.304;2023-08-24T00:03:57;6.23;;;5.20;;
15812;SDS011;8007;51.404;6.304;2023-08-24T00:05:59;5.97;;;5.27;;
15812;SDS011;8007;51.404;6.304;2023-08-24T00:08:01;8.73;;;4.93;;
15812;SDS011;8007;51.404;6.304;2023-08-24T00:10:05;9.47;;;5.60;;
15812;SDS011;8007;51.404;6.304;2023-08-24T00:12:07;8.10;;;5.20;;
15812;SDS011;8007;51.404;6.304;2023-08-24T00:14:10;7.83;;;5.27;;
15812;SDS011;8007;51.404;6.304;2023-08-24T00:16:12;7.17;;;5.23;;
15812;SDS011;8007;51.404;6.304;2023-08-24T00:18:15;5.73;;;4.87;;
15812;SDS011;8007;51.404;6.304;2023-08-24T00:20:20;6.43;;;4.50;;
15812;SDS011;8007;51.404;6.304;2023-08-24T00:22:23;7.50;;;5.00;;
15812;SDS011;8007;51.404;6.304;2023-08-24T00:24:25;5.53;;;4.40;;
15812;SDS011;8007;51.404;6.304;2023-08-24T00:26:27;6.20;;;4.70;;
15812;SDS011;8007;51.404;6.304;2023-08-24T00:28:30;5.80;;;4.77;;
15812;SDS011;8007;51.404;6.304;2023-08-24T00:30:32;5.13;;;4.33;;
15812;SDS011;8007;51.404;6.304;2023-08-24T00:32:34;8.57;;;4.53;;
15812;SDS011;8007;51.404;6.304;2023-08-24T00:34:37;7.40;;;5.13;;
15812;SDS011;8007;51.404;6.304;2023-08-24T00:36:40;8.93;;;5.47;;
15812;SDS011;8007;51.404;6.304;2023-08-24T00:38:43;5.83;;;4.70;;
15812;SDS011;8007;51.404;6.304;2023-08-24T00:40:45;7.97;;;5.23;;
15812;SDS011;8007;51.404;6.304;2023-08-24T00:42:47;7.00;;;5.20;;
15812;SDS011;8007;51.404;6.304;2023-08-24T00:44:49;7.10;;;5.17;;
15812;SDS011;8007;51.404;6.304;2023-08-24T00:46:51;8.23;;;5.70;;
15812;SDS011;8007;51.404;6.304;2023-08-24T00:48:55;10.17;;;5.00;;
15812;SDS011;8007;51.404;6.304;2023-08-24T00:50:58;6.07;;;5.00;;
15812;SDS011;8007;51.404;6.304;2023-08-24T00:53:03;6.13;;;4.90;;
15812;SDS011;8007;51.404;6.304;2023-08-24T00:55:05;5.60;;;4.90;;
15812;SDS011;8007;51.404;6.304;2023-08-24T00:57:08;6.13;;;5.40;;
15812;SDS011;8007;51.404;6.304;2023-08-24T00:59:11;9.30;;;4.90;;
15812;SDS011;8007;51.404;6.304;2023-08-24T01:01:13;6.03;;;4.73;;
15812;SDS011;8007;51.404;6.304;2023-08-24T01:03:15;6.70;;;4.90;;
15812;SDS011;8007;51.404;6.304;2023-08-24T01:05:17;6.50;;;4.87;;
15812;SDS011;8007;51.404;6.304;2023-08-24T01:07:20;6.13;;;4.47;;
15812;SDS011;8007;51.404;6.304;2023-08-24T01:09:23;6.27;;;5.07;;
15812;SDS011;8007;51.404;6.304;2023-08-24T01:11:27;6.30;;;5.23;;
15812;SDS011;8007;51.404;6.304;2023-08-24T01:13:35;8.40;;;5.30;;
15812;SDS011;8007;51.404;6.304;2023-08-24T01:15:43;7.83;;;5.37;;
15812;SDS011;8007;51.404;6.304;2023-08-24T01:17:52;9.17;;;5.67;;
15812;SDS011;8007;51.404;6.304;2023-08-24T01:19:54;6.13;;;5.40;;
15812;SDS011;8007;51.404;6.304;2023-08-24T01:21:58;8.10;;;5.63;;
15812;SDS011;8007;51.404;6.304;2023-08-24T01:24:03;10.17;;;5.43;;
15812;SDS011;8007;51.404;6.304;2023-08-24T01:26:12;11.37;;;6.67;;
15812;SDS011;8007;51.404;6.304;2023-08-24T01:28:15;9.07;;;6.33;;
15812;SDS011;8007;51.404;6.304;2023-08-24T01:30:18;7.33;;;5.60;;
15812;SDS011;8007;51.404;6.304;2023-08-24T01:32:20;9.07;;;5.50;;
15812;SDS011;8007;51.404;6.304;2023-08-24T01:34:22;6.40;;;5.50;;
15812;SDS011;8007;51.404;6.304;2023-08-24T01:36:24;8.53;;;6.40;;
15812;SDS011;8007;51.404;6.304;2023-08-24T01:38:28;6.63;;;5.63;;
15812;SDS011;8007;51.404;6.304;2023-08-24T01:40:33;8.20;;;6.13;;
15812;SDS011;8007;51.404;6.304;2023-08-24T01:42:43;10.53;;;6.47;;
15812;SDS011;8007;51.404;6.304;2023-08-24T01:44:49;6.97;;;6.10;;
15812;SDS011;8007;51.404;6.304;2023-08-24T01:46:54;7.83;;;5.47;;
15812;SDS011;8007;51.404;6.304;2023-08-24T01:48:55;7.63;;;6.03;;
15812;SDS011;8007;51.404;6.304;2023-08-24T01:50:59;9.20;;;5.90;;
15812;SDS011;8007;51.404;6.304;2023-08-24T01:53:02;7.70;;;6.73;;
15812;SDS011;8007;51.404;6.304;2023-08-24T01:55:05;6.60;;;5.90;;
15812;SDS011;8007;51.404;6.304;2023-08-24T01:57:08;7.67;;;5.93;;
15812;SDS011;8007;51.404;6.304;2023-08-24T01:59:12;7.67;;;6.40;;
15812;SDS011;8007;51.404;6.304;2023-08-24T02:01:14;8.70;;;6.97;;
15812;SDS011;8007;51.404;6.304;2023-08-24T02:03:16;8.70;;;7.10;;
15812;SDS011;8007;51.404;6.304;2023-08-24T02:05:18;9.53;;;5.73;;
15812;SDS011;8007;51.404;6.304;2023-08-24T02:07:21;9.53;;;6.83;;
15812;SDS011;8007;51.404;6.304;2023-08-24T02:09:23;7.87;;;6.50;;
15812;SDS011;8007;51.404;6.304;2023-08-24T02:11:25;8.90;;;6.73;;
15812;SDS011;8007;51.404;6.304;2023-08-24T02:13:28;8.50;;;6.70;;
15812;SDS011;8007;51.404;6.304;2023-08-24T02:15:30;8.73;;;6.20;;
15812;SDS011;8007;51.404;6.304;2023-08-24T02:17:32;10.87;;;7.83;;
15812;SDS011;8007;51.404;6.304;2023-08-24T02:19:35;11.83;;;7.73;;
15812;SDS011;8007;51.404;6.304;2023-08-24T02:21:37;8.13;;;6.83;;
15812;SDS011;8007;51.404;6.304;2023-08-24T02:23:39;10.53;;;7.20;;
15812;SDS011;8007;51.404;6.304;2023-08-24T02:25:42;9.17;;;7.10;;
15812;SDS011;8007;51.404;6.304;2023-08-24T02:27:44;9.10;;;6.27;;
15812;SDS011;8007;51.404;6.304;2023-08-24T02:29:47;9.03;;;6.20;;
15812;SDS011;8007;51.404;6.304;2023-08-24T02:31:51;8.83;;;5.93;;
15812;SDS011;8007;51.404;6.304;2023-08-24T02:33:53;12.43;;;6.77;;
15812;SDS011;8007;51.404;6.304;2023-08-24T02:35:56;9.53;;;7.03;;
15812;SDS011;8007;51.404;6.304;2023-08-24T02:37:58;10.27;;;6.67;;
15812;SDS011;8007;51.404;6.304;2023-08-24T02:40:01;8.87;;;6.40;;
15812;SDS011;8007;51.404;6.304;2023-08-24T02:42:04;11.63;;;7.60;;
15812;SDS011;8007;51.404;6.304;2023-08-24T02:44:06;9.80;;;6.53;;
15812;SDS011;8007;51.404;6.304;2023-08-24T02:46:08;9.93;;;6.87;;
15812;SDS011;8007;51.404;6.304;2023-08-24T02:48:12;11.27;;;7.70;;
15812;SDS011;8007;51.404;6.304;2023-08-24T02:50:14;12.40;;;7.57;;
15812;SDS011;8007;51.404;6.304;2023-08-24T02:52:17;10.73;;;7.63;;
15812;SDS011;8007;51.404;6.304;2023-08-24T02:54:19;10.53;;;7.80;;
15812;SDS011;8007;51.404;6.304;2023-08-24T02:56:21;8.53;;;6.93;;
15812;SDS011;8007;51.404;6.304;2023-08-24T02:58:23;9.00;;;7.40;;
15812;SDS011;8007;51.404;6.304;2023-08-24T03:00:27;7.70;;;6.90;;
15812;SDS011;8007;51.404;6.304;2023-08-24T03:02:29;7.20;;;5.43;;
15812;SDS011;8007;51.404;6.304;2023-08-24T03:04:33;7.93;;;7.10;;
15812;SDS011;8007;51.404;6.304;2023-08-24T03:06:35;8.43;;;7.10;;
15812;SDS011;8007;51.404;6.304;2023-08-24T03:08:37;9.97;;;7.73;;
15812;SDS011;8007;51.404;6.304;2023-08-24T03:10:39;10.27;;;6.93;;
15812;SDS011;8007;51.404;6.304;2023-08-24T03:12:42;11.80;;;7.83;;
15812;SDS011;8007;51.404;6.304;2023-08-24T03:14:44;10.73;;;7.63;;
15812;SDS011;8007;51.404;6.304;2023-08-24T03:16:46;9.83;;;7.87;;
15812;SDS011;8007;51.404;6.304;2023-08-24T03:18:48;9.37;;;8.33;;
15812;SDS011;8007;51.404;6.304;2023-08-24T03:20:52;8.40;;;7.20;;
15812;SDS011;8007;51.404;6.304;2023-08-24T03:22:54;9.10;;;7.27;;
15812;SDS011;8007;51.404;6.304;2023-08-24T03:24:57;13.23;;;8.57;;
15812;SDS011;8007;51.404;6.304;2023-08-24T03:26:59;11.50;;;8.43;;
15812;SDS011;8007;51.404;6.304;2023-08-24T03:29:02;13.17;;;8.73;;
15812;SDS011;8007;51.404;6.304;2023-08-24T03:31:06;10.93;;;7.43;;
15812;SDS011;8007;51.404;6.304;2023-08-24T03:33:08;10.87;;;7.37;;
15812;SDS011;8007;51.404;6.304;2023-08-24T03:35:10;10.73;;;8.23;;
15812;SDS011;8007;51.404;6.304;2023-08-24T03:37:13;10.67;;;8.67;;
15812;SDS011;8007;51.404;6.304;2023-08-24T03:39:15;10.43;;;9.23;;
15812;SDS011;8007;51.404;6.304;2023-08-24T03:41:17;13.23;;;9.20;;
15812;SDS011;8007;51.404;6.304;2023-08-24T03:43:20;13.93;;;9.87;;
15812;SDS011;8007;51.404;6.304;2023-08-24T03:45:22;16.77;;;11.17;;
15812;SDS011;8007;51.404;6.304;2023-08-24T03:47:24;16.97;;;11.73;;
15812;SDS011;8007;51.404;6.304;2023-08-24T03:49:26;18.23;;;12.13;;
15812;SDS011;8007;51.404;6.304;2023-08-24T03:51:29;16.90;;;12.00;;
15812;SDS011;8007;51.404;6.304;2023-08-24T03:53:33;17.13;;;12.33;;
15812;SDS011;8007;51.404;6.304;2023-08-24T03:55:35;17.30;;;11.50;;
15812;SDS011;8007;51.404;6.304;2023-08-24T03:57:36;16.10;;;11.70;;
15812;SDS011;8007;51.404;6.304;2023-08-24T03:59:39;13.63;;;10.03;;
15812;SDS011;8007;51.404;6.304;2023-08-24T04:01:40;20.17;;;11.63;;
15812;SDS011;8007;51.404;6.304;2023-08-24T04:03:42;18.70;;;12.17;;
15812;SDS011;8007;51.404;6.304;2023-08-24T04:05:44;17.30;;;12.97;;
15812;SDS011;8007;51.404;6.304;2023-08-24T04:07:47;20.90;;;13.23;;
15812;SDS011;8007;51.404;6.304;2023-08-24T04:09:50;18.37;;;13.97;;
15812;SDS011;8007;51.404;6.304;2023-08-24T04:11:53;17.40;;;13.43;;
15812;SDS011;8007;51.404;6.304;2023-08-24T04:13:55;18.07;;;14.63;;
15812;SDS011;8007;51.404;6.304;2023-08-24T04:15:57;20.67;;;14.13;;
15812;SDS011;8007;51.404;6.304;2023-08-24T04:17:59;20.67;;;13.93;;
15812;SDS011;8007;51.404;6.304;2023-08-24T04:20:02;21.90;;;14.83;;
15812;SDS011;8007;51.404;6.304;2023-08-24T04:22:06;26.43;;;14.77;;
15812;SDS011;8007;51.404;6.304;2023-08-24T04:24:08;21.50;;;15.43;;
15812;SDS011;8007;51.404;6.304;2023-08-24T04:26:12;25.97;;;17.60;;
15812;SDS011;8007;51.404;6.304;2023-08-24T04:28:14;24.53;;;17.23;;
15812;SDS011;8007;51.404;6.304;2023-08-24T04:30:17;25.20;;;16.87;;
15812;SDS011;8007;51.404;6.304;2023-08-24T04:32:19;23.97;;;17.67;;
15812;SDS011;8007;51.404;6.304;2023-08-24T04:34:23;26.37;;;17.37;;
15812;SDS011;8007;51.404;6.304;2023-08-24T04:36:24;27.63;;;18.47;;
15812;SDS011;8007;51.404;6.304;2023-08-24T04:38:26;38.13;;;18.93;;
15812;SDS011;8007;51.404;6.304;2023-08-24T04:40:29;27.40;;;19.23;;
15812;SDS011;8007;51.404;6.304;2023-08-24T04:42:32;24.53;;;17.87;;
15812;SDS011;8007;51.404;6.304;2023-08-24T04:44:35;26.73;;;17.03;;
15812;SDS011;8007;51.404;6.304;2023-08-24T04:46:37;25.50;;;17.30;;
15812;SDS011;8007;51.404;6.304;2023-08-24T04:48:39;25.53;;;16.80;;
15812;SDS011;8007;51.404;6.304;2023-08-24T04:50:43;24.13;;;17.50;;
15812;SDS011;8007;51.404;6.304;2023-08-24T04:52:45;25.70;;;17.20;;
15812;SDS011;8007;51.404;6.304;2023-08-24T04:54:48;22.13;;;16.27;;
15812;SDS011;8007;51.404;6.304;2023-08-24T04:56:50;18.13;;;15.70;;
15812;SDS011;8007;51.404;6.304;2023-08-24T04:58:54;19.67;;;15.23;;
15812;SDS011;8007;51.404;6.304;2023-08-24T05:00:57;21.50;;;15.77;;
15812;SDS011;8007;51.404;6.304;2023-08-24T05:02:59;19.03;;;14.50;;
15812;SDS011;8007;51.404;6.304;2023-08-24T05:05:01;21.90;;;14.50;;
15812;SDS011;8007;51.404;6.304;2023-08-24T05:07:03;22.03;;;14.40;;
15812;SDS011;8007;51.404;6.304;2023-08-24T05:09:05;19.13;;;13.13;;
15812;SDS011;8007;51.404;6.304;2023-08-24T05:11:11;17.93;;;13.03;;
15812;SDS011;8007;51.404;6.304;2023-08-24T05:13:14;18.13;;;13.20;;
15812;SDS011;8007;51.404;6.304;2023-08-24T05:15:17;22.13;;;14.00;;
15812;SDS011;8007;51.404;6.304;2023-08-24T05:17:20;17.17;;;12.70;;
15812;SDS011;8007;51.404;6.304;2023-08-24T05:19:24;18.97;;;12.47;;
15812;SDS011;8007;51.404;6.304;2023-08-24T05:21:27;14.37;;;11.77;;
15812;SDS011;8007;51.404;6.304;2023-08-24T05:23:29;16.57;;;11.70;;
15812;SDS011;8007;51.404;6.304;2023-08-24T05:25:31;15.33;;;12.50;;
15812;SDS011;8007;51.404;6.304;2023-08-24T05:27:34;16.17;;;12.37;;
15812;SDS011;8007;51.404;6.304;2023-08-24T05:29:36;17.93;;;12.27;;
15812;SDS011;8007;51.404;6.304;2023-08-24T05:31:40;13.37;;;11.47;;
15812;SDS011;8007;51.404;6.304;2023-08-24T05:33:42;15.77;;;11.23;;
15812;SDS011;8007;51.404;6.304;2023-08-24T05:35:44;15.77;;;12.03;;
15812;SDS011;8007;51.404;6.304;2023-08-24T05:37:47;15.53;;;12.70;;
15812;SDS011;8007;51.404;6.304;2023-08-24T05:39:49;16.27;;;12.30;;
15812;SDS011;8007;51.404;6.304;2023-08-24T05:41:51;16.30;;;11.80;;
15812;SDS011;8007;51.404;6.304;2023-08-24T05:43:54;17.57;;;12.13;;
15812;SDS011;8007;51.404;6.304;2023-08-24T05:45:57;15.47;;;12.17;;
15812;SDS011;8007;51.404;6.304;2023-08-24T05:48:01;15.67;;;12.30;;
15812;SDS011;8007;51.404;6.304;2023-08-24T05:50:03;16.60;;;13.67;;
15812;SDS011;8007;51.404;6.304;2023-08-24T05:52:06;20.67;;;16.20;;
15812;SDS011;8007;51.404;6.304;2023-08-24T05:54:08;16.27;;;11.20;;
15812;SDS011;8007;51.404;6.304;2023-08-24T05:56:10;14.03;;;11.20;;
15812;SDS011;8007;51.404;6.304;2023-08-24T05:58:13;12.50;;;10.97;;
15812;SDS011;8007;51.404;6.304;2023-08-24T06:00:15;17.10;;;10.83;;
15812;SDS011;8007;51.404;6.304;2023-08-24T06:02:18;13.27;;;10.90;;
15812;SDS011;8007;51.404;6.304;2023-08-24T06:04:22;14.57;;;11.27;;
15812;SDS011;8007;51.404;6.304;2023-08-24T06:06:24;13.83;;;11.17;;
15812;SDS011;8007;51.404;6.304;2023-08-24T06:08:26;13.07;;;11.67;;
15812;SDS011;8007;51.404;6.304;2023-08-24T06:10:28;12.47;;;10.80;;
15812;SDS011;8007;51.404;6.304;2023-08-24T06:12:31;12.93;;;10.50;;
15812;SDS011;8007;51.404;6.304;2023-08-24T06:14:33;16.30;;;11.50;;
15812;SDS011;8007;51.404;6.304;2023-08-24T06:16:35;14.47;;;11.13;;
15812;SDS011;8007;51.404;6.304;2023-08-24T06:18:38;14.13;;;10.27;;
15812;SDS011;8007;51.404;6.304;2023-08-24T06:20:41;13.83;;;10.87;;
15812;SDS011;8007;51.404;6.304;2023-08-24T06:22:44;12.90;;;11.13;;
15812;SDS011;8007;51.404;6.304;2023-08-24T06:24:46;14.03;;;10.77;;
15812;SDS011;8007;51.404;6.304;2023-08-24T06:26:49;14.97;;;11.03;;
15812;SDS011;8007;51.404;6.304;2023-08-24T06:28:51;13.93;;;10.93;;
15812;SDS011;8007;51.404;6.304;2023-08-24T06:30:54;14.80;;;11.43;;
15812;SDS011;8007;51.404;6.304;2023-08-24T06:32:56;17.33;;;11.60;;
15812;SDS011;8007;51.404;6.304;2023-08-24T06:34:59;15.33;;;12.00;;
15812;SDS011;8007;51.404;6.304;2023-08-24T06:37:02;12.80;;;11.43;;
15812;SDS011;8007;51.404;6.304;2023-08-24T06:39:04;13.90;;;10.67;;
15812;SDS011;8007;51.404;6.304;2023-08-24T06:41:06;15.47;;;11.83;;
15812;SDS011;8007;51.404;6.304;2023-08-24T06:43:12;13.80;;;10.23;;
15812;SDS011;8007;51.404;6.304;2023-08-24T06:45:14;13.97;;;11.20;;
15812;SDS011;8007;51.404;6.304;2023-08-24T06:47:18;17.93;;;10.43;;
15812;SDS011;8007;51.404;6.304;2023-08-24T06:49:20;16.40;;;10.80;;
15812;SDS011;8007;51.404;6.304;2023-08-24T06:51:22;42.13;;;27.17;;
15812;SDS011;8007;51.404;6.304;2023-08-24T06:53:27;13.47;;;10.77;;
15812;SDS011;8007;51.404;6.304;2023-08-24T06:55:29;15.77;;;10.57;;
15812;SDS011;8007;51.404;6.304;2023-08-24T06:57:31;16.53;;;11.20;;
15812;SDS011;8007;51.404;6.304;2023-08-24T06:59:33;12.93;;;10.83;;
15812;SDS011;8007;51.404;6.304;2023-08-24T07:01:36;13.97;;;10.10;;
15812;SDS011;8007;51.404;6.304;2023-08-24T07:03:38;14.53;;;10.33;;
15812;SDS011;8007;51.404;6.304;2023-08-24T07:05:40;11.47;;;9.50;;
15812;SDS011;8007;51.404;6.304;2023-08-24T07:07:43;12.88;;;9.85;;
15812;SDS011;8007;51.404;6.304;2023-08-24T07:09:47;12.98;;;10.25;;
15812;SDS011;8007;51.404;6.304;2023-08-24T07:11:48;10.90;;;9.80;;
15812;SDS011;8007;51.404;6.304;2023-08-24T07:13:50;13.55;;;10.00;;
15812;SDS011;8007;51.404;6.304;2023-08-24T07:15:53;14.63;;;9.98;;
15812;SDS011;8007;51.404;6.304;2023-08-24T07:17:56;12.07;;;8.70;;
15812;SDS011;8007;51.404;6.304;2023-08-24T07:19:58;10.45;;;8.55;;
15812;SDS011;8007;51.404;6.304;2023-08-24T07:22:01;10.73;;;8.68;;
15812;SDS011;8007;51.404;6.304;2023-08-24T07:24:04;11.82;;;8.90;;
15812;SDS011;8007;51.404;6.304;2023-08-24T07:26:07;9.43;;;8.45;;
15812;SDS011;8007;51.404;6.304;2023-08-24T07:28:10;10.10;;;8.43;;
15812;SDS011;8007;51.404;6.304;2023-08-24T07:30:12;12.70;;;8.50;;
15812;SDS011;8007;51.404;6.304;2023-08-24T07:32:15;10.00;;;8.38;;
15812;SDS011;8007;51.404;6.304;2023-08-24T07:34:17;24.98;;;17.52;;
15812;SDS011;8007;51.404;6.304;2023-08-24T07:36:22;8.57;;;7.78;;
15812;SDS011;8007;51.404;6.304;2023-08-24T07:38:24;8.25;;;7.45;;
15812;SDS011;8007;51.404;6.304;2023-08-24T07:40:26;7.82;;;6.72;;
15812;SDS011;8007;51.404;6.304;2023-08-24T07:42:30;7.82;;;6.60;;
15812;SDS011;8007;51.404;6.304;2023-08-24T07:44:32;7.55;;;6.38;;
15812;SDS011;8007;51.404;6.304;2023-08-24T07:46:34;8.02;;;6.47;;
15812;SDS011;8007;51.404;6.304;2023-08-24T07:48:37;8.13;;;6.70;;
15812;SDS011;8007;51.404;6.304;2023-08-24T07:50:39;7.35;;;6.28;;
15812;SDS011;8007;51.404;6.304;2023-08-24T07:52:41;10.63;;;6.75;;
15812;SDS011;8007;51.404;6.304;2023-08-24T07:54:43;7.55;;;6.63;;
15812;SDS011;8007;51.404;6.304;2023-08-24T07:56:46;7.95;;;6.20;;
15812;SDS011;8007;51.404;6.304;2023-08-24T07:58:49;7.75;;;6.35;;
15812;SDS011;8007;51.404;6.304;2023-08-24T08:00:52;8.93;;;6.13;;
15812;SDS011;8007;51.404;6.304;2023-08-24T08:02:54;7.65;;;6.65;;
15812;SDS011;8007;51.404;6.304;2023-08-24T08:04:57;10.40;;;6.35;;
15812;SDS011;8007;51.404;6.304;2023-08-24T08:06:59;8.70;;;6.40;;
15812;SDS011;8007;51.404;6.304;2023-08-24T08:09:01;7.47;;;6.10;;
15812;SDS011;8007;51.404;6.304;2023-08-24T08:11:04;8.75;;;6.32;;
15812;SDS011;8007;51.404;6.304;2023-08-24T08:13:06;9.27;;;6.40;;
15812;SDS011;8007;51.404;6.304;2023-08-24T08:15:10;12.68;;;7.80;;
15812;SDS011;8007;51.404;6.304;2023-08-24T08:17:11;7.68;;;6.07;;
15812;SDS011;8007;51.404;6.304;2023-08-24T08:19:13;7.65;;;6.90;;
15812;SDS011;8007;51.404;6.304;2023-08-24T08:21:18;9.63;;;6.97;;
15812;SDS011;8007;51.404;6.304;2023-08-24T08:23:20;9.00;;;7.10;;
15812;SDS011;8007;51.404;6.304;2023-08-24T08:25:22;9.65;;;7.00;;
15812;SDS011;8007;51.404;6.304;2023-08-24T08:27:25;9.15;;;5.95;;
15812;SDS011;8007;51.404;6.304;2023-08-24T08:29:27;8.82;;;6.25;;
15812;SDS011;8007;51.404;6.304;2023-08-24T08:31:31;7.20;;;5.68;;
15812;SDS011;8007;51.404;6.304;2023-08-24T08:33:33;24.05;;;14.95;;
15812;SDS011;8007;51.404;6.304;2023-08-24T08:35:36;11.48;;;7.82;;
15812;SDS011;8007;51.404;6.304;2023-08-24T08:37:39;9.48;;;6.32;;
15812;SDS011;8007;51.404;6.304;2023-08-24T08:39:41;6.18;;;5.50;;
15812;SDS011;8007;51.404;6.304;2023-08-24T08:41:44;8.93;;;5.82;;
15812;SDS011;8007;51.404;6.304;2023-08-24T08:43:47;7.30;;;5.50;;
15812;SDS011;8007;51.404;6.304;2023-08-24T08:45:51;5.82;;;5.15;;
15812;SDS011;8007;51.404;6.304;2023-08-24T08:47:56;8.05;;;5.70;;
15812;SDS011;8007;51.404;6.304;2023-08-24T08:50:01;7.57;;;6.20;;
15812;SDS011;8007;51.404;6.304;2023-08-24T08:52:04;8.52;;;5.75;;
15812;SDS011;8007;51.404;6.304;2023-08-24T08:54:07;8.88;;;5.85;;
15812;SDS011;8007;51.404;6.304;2023-08-24T08:56:09;7.45;;;5.65;;
15812;SDS011;8007;51.404;6.304;2023-08-24T08:58:12;8.55;;;5.90;;
15812;SDS011;8007;51.404;6.304;2023-08-24T09:00:15;6.88;;;5.60;;
15812;SDS011;8007;51.404;6.304;2023-08-24T09:02:18;8.02;;;5.13;;
15812;SDS011;8007;51.404;6.304;2023-08-24T09:04:22;8.38;;;5.68;;
15812;SDS011;8007;51.404;6.304;2023-08-24T09:06:25;7.35;;;5.43;;
15812;SDS011;8007;51.404;6.304;2023-08-24T09:08:27;7.00;;;5.63;;
15812;SDS011;8007;51.404;6.304;2023-08-24T09:10:30;8.15;;;5.60;;
15812;SDS011;8007;51.404;6.304;2023-08-24T09:12:33;5.45;;;4.95;;
15812;SDS011;8007;51.404;6.304;2023-08-24T09:14:35;7.78;;;5.32;;
15812;SDS011;8007;51.404;6.304;2023-08-24T09:16:38;5.30;;;4.78;;
15812;SDS011;8007;51.404;6.304;2023-08-24T09:18:41;5.45;;;4.93;;
15812;SDS011;8007;51.404;6.304;2023-08-24T09:20:47;8.13;;;5.78;;
15812;SDS011;8007;51.404;6.304;2023-08-24T09:22:50;7.38;;;4.47;;
15812;SDS011;8007;51.404;6.304;2023-08-24T09:24:54;7.75;;;4.68;;
15812;SDS011;8007;51.404;6.304;2023-08-24T09:26:56;5.05;;;4.55;;
15812;SDS011;8007;51.404;6.304;2023-08-24T09:28:59;6.65;;;4.88;;
15812;SDS011;8007;51.404;6.304;2023-08-24T09:31:11;11.15;;;7.45;;
15812;SDS011;8007;51.404;6.304;2023-08-24T09:33:14;8.07;;;7.22;;
15812;SDS011;8007;51.404;6.304;2023-08-24T09:35:16;8.13;;;5.07;;
15812;SDS011;8007;51.404;6.304;2023-08-24T09:37:20;7.00;;;5.22;;
15812;SDS011;8007;51.404;6.304;2023-08-24T09:39:22;7.25;;;6.20;;
15812;SDS011;8007;51.404;6.304;2023-08-24T09:41:24;8.25;;;5.43;;
15812;SDS011;8007;51.404;6.304;2023-08-24T09:43:30;10.35;;;6.05;;
15812;SDS011;8007;51.404;6.304;2023-08-24T09:45:32;6.07;;;5.57;;
15812;SDS011;8007;51.404;6.304;2023-08-24T09:47:35;9.65;;;5.40;;
15812;SDS011;8007;51.404;6.304;2023-08-24T09:49:37;8.43;;;5.65;;
15812;SDS011;8007;51.404;6.304;2023-08-24T09:51:40;7.15;;;4.97;;
15812;SDS011;8007;51.404;6.304;2023-08-24T09:53:46;7.57;;;5.15;;
15812;SDS011;8007;51.404;6.304;2023-08-24T09:55:49;6.95;;;4.80;;
15812;SDS011;8007;51.404;6.304;2023-08-24T09:57:54;5.82;;;5.20;;
15812;SDS011;8007;51.404;6.304;2023-08-24T09:59:57;8.05;;;5.20;;
15812;SDS011;8007;51.404;6.304;2023-08-24T10:02:00;5.45;;;4.95;;
15812;SDS011;8007;51.404;6.304;2023-08-24T10:04:03;5.93;;;5.40;;
15812;SDS011;8007;51.404;6.304;2023-08-24T10:06:07;6.95;;;5.30;;
15812;SDS011;8007;51.404;6.304;2023-08-24T10:08:10;6.10;;;4.70;;
15812;SDS011;8007;51.404;6.304;2023-08-24T10:10:14;5.53;;;4.93;;
15812;SDS011;8007;51.404;6.304;2023-08-24T10:12:18;7.93;;;5.00;;
15812;SDS011;8007;51.404;6.304;2023-08-24T10:14:23;6.30;;;4.85;;
15812;SDS011;8007;51.404;6.304;2023-08-24T10:16:28;9.25;;;4.90;;
15812;SDS011;8007;51.404;6.304;2023-08-24T10:18:31;5.93;;;4.72;;
15812;SDS011;8007;51.404;6.304;2023-08-24T10:20:33;7.72;;;4.50;;
15812;SDS011;8007;51.404;6.304;2023-08-24T10:22:37;5.85;;;4.10;;
15812;SDS011;8007;51.404;6.304;2023-08-24T10:24:40;4.93;;;3.97;;
15812;SDS011;8007;51.404;6.304;2023-08-24T10:26:44;4.63;;;3.45;;
15812;SDS011;8007;51.404;6.304;2023-08-24T10:28:47;5.10;;;3.75;;
15812;SDS011;8007;51.404;6.304;2023-08-24T10:30:50;8.38;;;4.00;;
15812;SDS011;8007;51.404;6.304;2023-08-24T10:32:53;6.32;;;4.03;;
15812;SDS011;8007;51.404;6.304;2023-08-24T10:34:56;6.15;;;4.20;;
15812;SDS011;8007;51.404;6.304;2023-08-24T10:37:06;5.07;;;3.90;;
15812;SDS011;8007;51.404;6.304;2023-08-24T10:39:08;4.40;;;4.00;;
15812;SDS011;8007;51.404;6.304;2023-08-24T10:41:11;9.00;;;4.15;;
15812;SDS011;8007;51.404;6.304;2023-08-24T10:43:18;3.85;;;3.45;;
15812;SDS011;8007;51.404;6.304;2023-08-24T10:45:19;4.55;;;4.15;;
15812;SDS011;8007;51.404;6.304;2023-08-24T10:47:24;5.85;;;4.00;;
15812;SDS011;8007;51.404;6.304;2023-08-24T10:49:29;4.50;;;3.97;;
15812;SDS011;8007;51.404;6.304;2023-08-24T10:51:30;4.53;;;4.00;;
15812;SDS011;8007;51.404;6.304;2023-08-24T10:53:39;6.03;;;4.25;;
15812;SDS011;8007;51.404;6.304;2023-08-24T10:55:40;5.18;;;4.25;;
15812;SDS011;8007;51.404;6.304;2023-08-24T10:57:42;4.72;;;4.03;;
15812;SDS011;8007;51.404;6.304;2023-08-24T10:59:46;4.93;;;4.40;;
15812;SDS011;8007;51.404;6.304;2023-08-24T11:01:59;8.55;;;5.00;;
15812;SDS011;8007;51.404;6.304;2023-08-24T11:04:02;5.50;;;5.00;;
15812;SDS011;8007;51.404;6.304;2023-08-24T11:06:17;6.45;;;5.40;;
15812;SDS011;8007;51.404;6.304;2023-08-24T11:08:20;8.75;;;6.25;;
15812;SDS011;8007;51.404;6.304;2023-08-24T11:10:23;4.97;;;4.50;;
15812;SDS011;8007;51.404;6.304;2023-08-24T11:12:26;5.82;;;4.40;;
15812;SDS011;8007;51.404;6.304;2023-08-24T11:14:30;6.32;;;4.35;;
15812;SDS011;8007;51.404;6.304;2023-08-24T11:16:41;4.63;;;4.20;;
15812;SDS011;8007;51.404;6.304;2023-08-24T11:18:44;5.28;;;4.18;;
15812;SDS011;8007;51.404;6.304;2023-08-24T11:20:47;5.65;;;4.88;;
15812;SDS011;8007;51.404;6.304;2023-08-24T11:22:49;7.32;;;4.43;;
15812;SDS011;8007;51.404;6.304;2023-08-24T11:24:51;9.15;;;5.03;;
15812;SDS011;8007;51.404;6.304;2023-08-24T11:26:53;5.90;;;4.70;;
15812;SDS011;8007;51.404;6.304;2023-08-24T11:28:55;6.68;;;4.68;;
15812;SDS011;8007;51.404;6.304;2023-08-24T11:30:58;5.63;;;4.53;;
15812;SDS011;8007;51.404;6.304;2023-08-24T11:33:02;5.07;;;4.50;;
15812;SDS011;8007;51.404;6.304;2023-08-24T11:35:04;8.73;;;4.70;;
15812;SDS011;8007;51.404;6.304;2023-08-24T11:37:09;5.20;;;4.70;;
15812;SDS011;8007;51.404;6.304;2023-08-24T11:39:21;6.15;;;4.90;;
15812;SDS011;8007;51.404;6.304;2023-08-24T11:41:24;6.65;;;5.00;;
15812;SDS011;8007;51.404;6.304;2023-08-24T11:43:26;5.72;;;5.13;;
15812;SDS011;8007;51.404;6.304;2023-08-24T11:45:29;9.18;;;4.72;;
15812;SDS011;8007;51.404;6.304;2023-08-24T11:47:32;7.13;;;4.70;;
15812;SDS011;8007;51.404;6.304;2023-08-24T11:49:36;8.70;;;5.18;;
15812;SDS011;8007;51.404;6.304;2023-08-24T11:51:39;5.68;;;4.63;;
15812;SDS011;8007;51.404;6.304;2023-08-24T11:53:42;6.72;;;4.20;;
15812;SDS011;8007;51.404;6.304;2023-08-24T11:55:44;7.30;;;4.68;;
15812;SDS011;8007;51.404;6.304;2023-08-24T11:57:46;5.75;;;4.40;;
15812;SDS011;8007;51.404;6.304;2023-08-24T11:59:49;4.97;;;4.32;;
15812;SDS011;8007;51.404;6.304;2023-08-24T12:01:51;8.40;;;4.18;;
15812;SDS011;8007;51.404;6.304;2023-08-24T12:03:54;8.20;;;4.30;;
15812;SDS011;8007;51.404;6.304;2023-08-24T12:06:00;6.07;;;4.22;;
15812;SDS011;8007;51.404;6.304;2023-08-24T12:08:03;5.03;;;4.18;;
15812;SDS011;8007;51.404;6.304;2023-08-24T12:10:06;7.57;;;4.45;;
15812;SDS011;8007;51.404;6.304;2023-08-24T12:12:11;7.88;;;4.80;;
15812;SDS011;8007;51.404;6.304;2023-08-24T12:14:17;6.28;;;4.18;;
15812;SDS011;8007;51.404;6.304;2023-08-24T12:16:20;9.20;;;4.68;;
15812;SDS011;8007;51.404;6.304;2023-08-24T12:18:23;4.93;;;4.35;;
15812;SDS011;8007;51.404;6.304;2023-08-24T12:20:25;5.57;;;4.68;;
15812;SDS011;8007;51.404;6.304;2023-08-24T12:22:29;7.00;;;4.45;;
15812;SDS011;8007;51.404;6.304;2023-08-24T12:24:31;6.18;;;4.05;;
15812;SDS011;8007;51.404;6.304;2023-08-24T12:26:34;6.75;;;4.25;;